Time;durP1;ratioP1;P1;durP2;ratioP2;P2;SDS_P1;SDS_P2;PMS_P1;PMS_P2;Temp;Humidity;BMP_temperature;BMP_pressure;BME280_temperature;BME280_humidity;BME280_pressure;Samples;Min_cycle;Max_cycle;Signal;HPM_P1;HPM_P2
2024/01/10 00:00:49;;;;;;;25.37;19.83;;;-4.70;99.90;;;;;;5114063;28;20399;-90
2024/01/10 00:03:14;;;;;;;25.13;19.40;;;-4.70;99.90;;;;;;5109356;28;20578;-90
2024/01/10 00:05:40;;;;;;;24.90;19.60;;;-4.70;99.90;;;;;;5110124;28;20406;-89
2024/01/10 00:08:06;;;;;;;25.52;20.02;;;-4.60;99.90;;;;;;5109417;28;20414;-89
2024/01/10 00:10:31;;;;;;;27.00;20.65;;;-4.70;99.90;;;;;;5109694;28;20420;-89
2024/01/10 00:12:57;;;;;;;24.53;19.20;;;-4.70;99.90;;;;;;5110187;28;20507;-88
2024/01/10 00:15:22;;;;;;;24.93;19.40;;;-4.70;99.90;;;;;;5109727;28;20434;-88
2024/01/10 00:17:48;;;;;;;25.10;19.90;;;-4.70;99.90;;;;;;5110152;28;20912;-88
2024/01/10 00:20:14;;;;;;;27.02;20.63;;;-4.70;99.90;;;;;;5126539;27;20413;-87
2024/01/10 00:22:39;;;;;;;27.95;21.45;;;-4.70;99.90;;;;;;5109806;28;20411;-90
2024/01/10 00:25:05;;;;;;;29.30;22.73;;;-4.70;99.90;;;;;;5111674;27;20406;-88
2024/01/10 00:27:31;;;;;;;27.83;22.97;;;-4.80;99.90;;;;;;5114119;27;20442;-90
2024/01/10 00:29:57;;;;;;;33.10;25.20;;;-4.80;99.90;;;;;;5113499;27;20442;-89
2024/01/10 00:32:22;;;;;;;33.63;25.88;;;-4.70;99.90;;;;;;5123381;27;20776;-89
2024/01/10 00:34:48;;;;;;;37.93;28.47;;;-4.80;99.90;;;;;;5129739;27;20514;-89
2024/01/10 00:37:13;;;;;;;36.77;27.97;;;-4.70;99.90;;;;;;5113296;27;20414;-89
2024/01/10 00:39:39;;;;;;;37.67;29.00;;;-4.70;99.90;;;;;;5113490;27;20927;-90
2024/01/10 00:42:05;;;;;;;37.13;29.88;;;-4.80;99.90;;;;;;5112800;27;20438;-89
2024/01/10 00:44:30;;;;;;;37.88;28.92;;;-4.80;99.90;;;;;;5113739;27;20976;-89
2024/01/10 00:46:56;;;;;;;42.53;32.30;;;-4.80;99.90;;;;;;5112781;27;20429;-89
2024/01/10 00:49:22;;;;;;;43.07;31.47;;;-4.70;99.90;;;;;;5113484;27;20418;-89
2024/01/10 00:51:47;;;;;;;39.93;30.50;;;-4.80;99.90;;;;;;5130502;27;20407;-90
2024/01/10 00:54:13;;;;;;;40.07;30.90;;;-4.70;99.90;;;;;;5112319;27;20423;-87
2024/01/10 00:56:39;;;;;;;40.75;31.80;;;-4.70;99.90;;;;;;5113559;27;20811;-89
2024/01/10 00:59:04;;;;;;;41.92;32.45;;;-4.80;99.90;;;;;;5112801;27;20402;-90
2024/01/10 01:01:30;;;;;;;44.47;32.77;;;-4.80;99.90;;;;;;5112904;27;20510;-90
2024/01/10 01:03:55;;;;;;;45.13;34.47;;;-4.80;99.90;;;;;;5129892;27;20897;-90
2024/01/10 01:06:21;;;;;;;47.42;35.05;;;-4.80;99.90;;;;;;5129356;27;20405;-89
2024/01/10 01:08:47;;;;;;;44.03;33.55;;;-4.80;99.90;;;;;;5133349;27;20397;-90
2024/01/10 01:11:14;;;;;;;48.95;36.35;;;-4.80;99.90;;;;;;5144030;27;20395;-89
2024/01/10 01:13:40;;;;;;;47.13;35.25;;;-4.80;99.90;;;;;;5114746;27;20513;-89
2024/01/10 01:16:06;;;;;;;51.87;37.70;;;-4.70;99.90;;;;;;5131991;27;20458;-89
2024/01/10 01:18:32;;;;;;;52.15;37.83;;;-4.80;99.90;;;;;;5132830;27;20409;-89
2024/01/10 01:20:58;;;;;;;50.83;37.23;;;-4.80;99.90;;;;;;5131812;27;21229;-89
2024/01/10 01:23:24;;;;;;;54.15;38.70;;;-4.70;99.90;;;;;;5132550;27;20915;-89
2024/01/10 01:25:50;;;;;;;56.13;40.05;;;-4.70;99.90;;;;;;5132331;27;20415;-89
2024/01/10 01:28:17;;;;;;;56.20;39.97;;;-4.80;99.90;;;;;;5149499;27;20497;-89
2024/01/10 01:30:44;;;;;;;55.83;39.63;;;-4.70;99.90;;;;;;5133217;27;20504;-89
2024/01/10 01:33:09;;;;;;;54.45;39.13;;;-4.70;99.90;;;;;;5149721;27;20397;-91
2024/01/10 01:35:35;;;;;;;54.20;39.20;;;-4.70;99.90;;;;;;5132573;27;20401;-89
2024/01/10 01:38:00;;;;;;;54.33;40.20;;;-4.70;99.90;;;;;;5132569;27;20404;-89
2024/01/10 01:40:26;;;;;;;54.35;39.58;;;-4.80;99.90;;;;;;5127710;27;20399;-89
2024/01/10 01:42:53;;;;;;;53.67;39.83;;;-4.80;99.90;;;;;;5111949;27;20490;-90
2024/01/10 01:45:19;;;;;;;55.85;40.72;;;-4.80;99.90;;;;;;5111961;27;20447;-89
2024/01/10 01:47:45;;;;;;;54.90;39.85;;;-4.70;99.90;;;;;;5111889;27;20415;-89
2024/01/10 01:50:10;;;;;;;59.47;41.95;;;-4.70;99.90;;;;;;5116368;27;20435;-90
2024/01/10 01:52:37;;;;;;;59.25;41.28;;;-4.70;99.90;;;;;;5132455;27;20911;-90
2024/01/10 01:55:04;;;;;;;58.58;42.15;;;-4.70;99.90;;;;;;5131829;27;20425;-89
2024/01/10 01:57:30;;;;;;;56.90;41.45;;;-4.70;99.90;;;;;;5117672;27;20395;-89
2024/01/10 01:59:57;;;;;;;56.30;40.88;;;-4.70;99.90;;;;;;5112008;27;20889;-89
2024/01/10 02:02:24;;;;;;;55.03;40.05;;;-4.70;99.90;;;;;;5128910;27;20403;-90
2024/01/10 02:04:49;;;;;;;54.28;40.28;;;-4.70;99.90;;;;;;5111721;27;20410;-90
2024/01/10 02:07:15;;;;;;;55.33;39.55;;;-4.70;99.90;;;;;;5111628;27;20777;-89
2024/01/10 02:09:40;;;;;;;53.35;39.13;;;-4.70;99.90;;;;;;5128787;27;20413;-89
2024/01/10 02:12:06;;;;;;;52.00;38.37;;;-4.70;99.90;;;;;;5111176;27;20405;-89
2024/01/10 02:14:32;;;;;;;49.87;36.63;;;-4.50;99.90;;;;;;5111981;27;20801;-89
2024/01/10 02:16:57;;;;;;;46.60;35.70;;;-4.70;99.90;;;;;;5111115;27;20439;-90
2024/01/10 02:19:24;;;;;;;48.53;36.53;;;-4.70;99.90;;;;;;5111854;27;20476;-89
2024/01/10 02:21:50;;;;;;;51.00;38.20;;;-4.80;99.90;;;;;;5110628;27;20434;-90
2024/01/10 02:24:15;;;;;;;53.13;38.73;;;-4.80;99.90;;;;;;5111176;27;20449;-90
2024/01/10 02:26:41;;;;;;;48.70;36.83;;;-4.80;99.90;;;;;;5128358;27;20434;-88
2024/01/10 02:29:07;;;;;;;51.25;37.92;;;-4.70;99.90;;;;;;5128126;27;20422;-89
2024/01/10 02:31:33;;;;;;;53.03;38.05;;;-4.80;99.90;;;;;;5111459;27;20446;-90
2024/01/10 02:33:58;;;;;;;52.08;38.00;;;-4.80;99.90;;;;;;5110537;27;20426;-88
2024/01/10 02:36:24;;;;;;;49.40;36.73;;;-4.80;99.90;;;;;;5111637;27;20418;-89
2024/01/10 02:38:50;;;;;;;49.60;38.57;;;-4.80;99.90;;;;;;5110504;27;20904;-89
2024/01/10 02:41:15;;;;;;;54.35;39.10;;;-4.80;99.90;;;;;;5127633;27;20481;-89
2024/01/10 02:43:41;;;;;;;51.22;38.03;;;-4.80;99.90;;;;;;5111072;27;20933;-89
2024/01/10 02:46:07;;;;;;;49.88;36.92;;;-4.80;99.90;;;;;;5110585;27;20414;-89
2024/01/10 02:48:32;;;;;;;48.57;37.07;;;-4.90;99.90;;;;;;5110342;27;20451;-88
2024/01/10 02:50:58;;;;;;;50.07;37.80;;;-4.80;99.90;;;;;;5110360;27;20399;-88
2024/01/10 02:53:23;;;;;;;50.97;38.13;;;-4.80;99.90;;;;;;5111177;27;20788;-89
2024/01/10 02:55:50;;;;;;;56.78;40.55;;;-4.90;99.90;;;;;;5110297;27;20403;-89
2024/01/10 02:58:16;;;;;;;57.08;41.00;;;-4.90;99.90;;;;;;5127528;27;20397;-89
2024/01/10 03:00:41;;;;;;;55.10;40.53;;;-4.80;99.90;;;;;;5110202;27;20407;-89
2024/01/10 03:03:07;;;;;;;59.37;41.83;;;-4.90;99.90;;;;;;5110574;27;20398;-89
2024/01/10 03:05:32;;;;;;;57.43;40.97;;;-4.90;99.90;;;;;;5128112;27;20468;-89
2024/01/10 03:07:58;;;;;;;55.08;39.58;;;-4.90;99.90;;;;;;5110447;27;20422;-90
2024/01/10 03:10:24;;;;;;;54.13;41.35;;;-4.90;99.90;;;;;;5128164;27;20395;-90
2024/01/10 03:12:49;;;;;;;58.70;41.67;;;-4.90;99.90;;;;;;5110212;27;20415;-90
2024/01/10 03:15:15;;;;;;;55.63;40.83;;;-4.90;99.90;;;;;;5110367;27;20513;-90
2024/01/10 03:17:41;;;;;;;50.90;37.90;;;-4.90;99.90;;;;;;5109800;27;20418;-89
2024/01/10 03:20:08;;;;;;;55.10;39.63;;;-4.90;99.90;;;;;;5110885;27;20492;-90
2024/01/10 03:22:34;;;;;;;57.25;40.78;;;-4.90;99.90;;;;;;5110398;27;20422;-89
2024/01/10 03:25:00;;;;;;;52.97;38.10;;;-4.80;99.90;;;;;;5110056;27;20406;-89
2024/01/10 03:27:26;;;;;;;51.65;37.90;;;-4.90;99.90;;;;;;5110578;27;20402;-88
2024/01/10 03:29:51;;;;;;;51.72;36.28;;;-4.80;99.90;;;;;;5110141;28;21018;-90
2024/01/10 03:32:17;;;;;;;51.92;37.17;;;-4.90;99.90;;;;;;5111213;27;20422;-90
2024/01/10 03:34:43;;;;;;;47.97;34.90;;;-4.80;99.90;;;;;;5130664;27;20428;-89
2024/01/10 03:37:08;;;;;;;46.63;34.47;;;-4.80;99.90;;;;;;5130950;27;20397;-89
2024/01/10 03:39:34;;;;;;;44.30;34.00;;;-4.80;99.90;;;;;;5128181;27;20926;-90
2024/01/10 03:41:59;;;;;;;43.85;33.13;;;-4.90;99.90;;;;;;5147844;27;20393;-89
2024/01/10 03:44:26;;;;;;;43.90;32.47;;;-4.90;99.90;;;;;;5131451;27;20429;-89
2024/01/10 03:46:52;;;;;;;43.08;32.10;;;-4.90;99.90;;;;;;5130287;27;20401;-89
2024/01/10 03:49:17;;;;;;;44.93;33.00;;;-4.90;99.90;;;;;;5131240;27;20401;-88
2024/01/10 03:51:43;;;;;;;41.30;32.00;;;-4.90;99.90;;;;;;5130050;27;20856;-88
2024/01/10 03:54:09;;;;;;;42.23;32.20;;;-4.90;99.90;;;;;;5130622;27;20551;-90
2024/01/10 03:56:34;;;;;;;41.60;31.10;;;-4.90;99.90;;;;;;5129939;27;20401;-89
2024/01/10 03:59:01;;;;;;;44.67;32.88;;;-4.90;99.90;;;;;;5132503;27;20425;-89
2024/01/10 04:01:27;;;;;;;40.17;31.10;;;-4.90;99.90;;;;;;5135133;27;20736;-89
2024/01/10 04:03:52;;;;;;;42.92;32.10;;;-4.90;99.90;;;;;;5151651;27;20393;-89
2024/01/10 04:06:18;;;;;;;41.87;31.87;;;-4.80;99.90;;;;;;5131619;27;20867;-89
2024/01/10 04:08:44;;;;;;;41.50;31.80;;;-4.90;99.90;;;;;;5130832;27;20406;-90
2024/01/10 04:11:09;;;;;;;42.30;31.50;;;-4.90;99.90;;;;;;5114519;27;20401;-89
2024/01/10 04:13:35;;;;;;;41.83;31.33;;;-4.90;99.90;;;;;;5113063;27;20524;-89
2024/01/10 04:16:01;;;;;;;42.42;31.95;;;-5.00;99.90;;;;;;5114377;27;20487;-89
2024/01/10 04:18:26;;;;;;;43.72;31.65;;;-5.00;99.90;;;;;;5113647;27;20414;-89
2024/01/10 04:20:52;;;;;;;46.47;33.20;;;-4.90;99.90;;;;;;5113489;27;20516;-89
2024/01/10 04:23:18;;;;;;;48.70;34.17;;;-5.00;99.90;;;;;;5113951;27;20418;-89
2024/01/10 04:25:43;;;;;;;50.00;35.73;;;-5.10;99.90;;;;;;5113364;27;20387;-89
2024/01/10 04:28:09;;;;;;;43.20;32.47;;;-5.00;99.90;;;;;;5114207;27;20383;-90
2024/01/10 04:30:34;;;;;;;45.47;33.60;;;-5.00;99.90;;;;;;5117566;27;20428;-88
2024/01/10 04:33:00;;;;;;;44.78;33.22;;;-5.10;99.90;;;;;;5134064;27;20397;-88
2024/01/10 04:35:26;;;;;;;41.78;31.42;;;-5.00;99.90;;;;;;5133837;27;20794;-89
2024/01/10 04:37:51;;;;;;;55.55;39.53;;;-5.10;99.90;;;;;;5134341;27;20401;-90
2024/01/10 04:40:17;;;;;;;57.43;40.10;;;-5.00;99.90;;;;;;5133832;27;20728;-89
2024/01/10 04:42:44;;;;;;;57.27;39.87;;;-5.10;99.90;;;;;;5134357;27;20404;-89
2024/01/10 04:45:10;;;;;;;55.95;38.78;;;-5.10;99.90;;;;;;5134368;27;20385;-89
2024/01/10 04:47:35;;;;;;;49.20;35.60;;;-5.10;99.90;;;;;;5133144;27;20445;-89
2024/01/10 04:50:01;;;;;;;49.83;35.90;;;-5.20;99.90;;;;;;5134339;27;20425;-90
2024/01/10 04:52:27;;;;;;;59.03;40.28;;;-5.20;99.90;;;;;;5133449;27;20405;-89
2024/01/10 04:54:52;;;;;;;54.55;38.38;;;-5.20;99.90;;;;;;5133532;27;20462;-89
2024/01/10 04:57:18;;;;;;;45.20;33.70;;;-5.10;99.90;;;;;;5132995;27;20400;-88
2024/01/10 04:59:43;;;;;;;48.07;35.13;;;-5.20;99.90;;;;;;5133672;27;20410;-89
2024/01/10 05:02:09;;;;;;;45.83;35.08;;;-5.20;99.90;;;;;;5134129;27;20393;-91
2024/01/10 05:04:35;;;;;;;53.20;37.47;;;-5.20;99.90;;;;;;5112563;27;20421;-88
2024/01/10 05:07:00;;;;;;;49.55;37.20;;;-5.20;99.90;;;;;;5130096;27;20434;-88
2024/01/10 05:09:26;;;;;;;48.03;35.78;;;-5.20;99.90;;;;;;5113230;27;20398;-89
2024/01/10 05:11:52;;;;;;;50.13;36.87;;;-5.20;99.90;;;;;;5132318;27;20408;-90
2024/01/10 05:14:21;;;;;;;49.72;36.10;;;-5.30;99.90;;;;;;5132807;27;20486;-88
2024/01/10 05:16:49;;;;;;;52.92;38.33;;;-5.30;99.90;;;;;;5150117;27;20396;-87
2024/01/10 05:19:15;;;;;;;50.30;37.07;;;-5.20;99.90;;;;;;5133255;27;21040;-88
2024/01/10 05:21:41;;;;;;;50.30;36.93;;;-5.30;99.90;;;;;;5149780;27;20488;-88
2024/01/10 05:24:07;;;;;;;52.27;38.13;;;-5.30;99.90;;;;;;5133066;27;20862;-88
2024/01/10 05:26:32;;;;;;;55.80;41.00;;;-5.30;99.90;;;;;;5132198;27;20413;-88
2024/01/10 05:28:58;;;;;;;53.13;38.73;;;-5.30;99.90;;;;;;5133153;27;20842;-88
2024/01/10 05:31:23;;;;;;;52.38;38.13;;;-5.30;99.90;;;;;;5140794;27;20481;-88
2024/01/10 05:33:49;;;;;;;53.55;38.45;;;-5.30;99.90;;;;;;5129483;27;20491;-88
2024/01/10 05:36:15;;;;;;;51.77;37.90;;;-5.30;99.90;;;;;;5112259;27;20894;-89
2024/01/10 05:38:41;;;;;;;50.97;37.80;;;-5.40;99.90;;;;;;5112197;27;20406;-89
2024/01/10 05:41:06;;;;;;;53.97;38.85;;;-5.30;99.90;;;;;;5131775;27;20437;-88
2024/01/10 05:43:33;;;;;;;54.15;39.28;;;-5.40;99.90;;;;;;5111547;27;20403;-88
2024/01/10 05:45:59;;;;;;;57.45;41.03;;;-5.40;99.90;;;;;;5112105;27;20946;-89
2024/01/10 05:48:25;;;;;;;53.85;40.00;;;-5.40;99.90;;;;;;5111329;27;20395;-89
2024/01/10 05:50:51;;;;;;;54.15;40.55;;;-5.40;99.90;;;;;;5111697;27;20407;-89
2024/01/10 05:53:17;;;;;;;53.80;39.77;;;-5.40;99.90;;;;;;5111417;27;20754;-88
2024/01/10 05:55:43;;;;;;;53.97;39.50;;;-5.40;99.90;;;;;;5111138;27;20387;-89
2024/01/10 05:58:10;;;;;;;54.20;38.85;;;-5.40;99.90;;;;;;5111749;27;20435;-89
2024/01/10 06:00:35;;;;;;;60.77;42.87;;;-5.20;99.90;;;;;;5111200;27;20410;-88
2024/01/10 06:03:01;;;;;;;55.60;40.47;;;-5.40;99.90;;;;;;5111617;27;20413;-90
2024/01/10 06:05:27;;;;;;;59.30;41.17;;;-5.20;99.90;;;;;;5127829;27;20778;-89
2024/01/10 06:07:52;;;;;;;57.53;41.33;;;-5.40;99.90;;;;;;5128819;27;20489;-89
2024/01/10 06:10:18;;;;;;;56.22;41.15;;;-5.50;99.90;;;;;;5110482;27;20409;-89
2024/01/10 06:12:43;;;;;;;55.70;40.38;;;-5.40;99.90;;;;;;5112452;27;20873;-89
2024/01/10 06:15:09;;;;;;;54.17;40.50;;;-5.50;99.90;;;;;;5131771;27;20965;-89
2024/01/10 06:17:35;;;;;;;54.80;40.05;;;-5.50;99.90;;;;;;5114281;27;20402;-89
2024/01/10 06:20:03;;;;;;;54.13;40.30;;;-5.50;99.90;;;;;;5111421;27;20422;-88
2024/01/10 06:22:28;;;;;;;56.90;42.37;;;-5.50;99.90;;;;;;5110017;27;20443;-89
2024/01/10 06:24:54;;;;;;;57.63;42.33;;;-5.50;99.90;;;;;;5111624;27;20407;-88
2024/01/10 06:27:19;;;;;;;60.07;42.70;;;-5.60;99.90;;;;;;5110951;27;20437;-87
2024/01/10 06:29:45;;;;;;;61.95;44.25;;;-5.50;99.90;;;;;;5111241;27;20438;-88
2024/01/10 06:32:11;;;;;;;62.28;45.67;;;-5.60;99.90;;;;;;5110509;27;20430;-88
2024/01/10 06:34:37;;;;;;;61.17;43.08;;;-5.60;99.90;;;;;;5110508;27;20430;-88
2024/01/10 06:37:03;;;;;;;66.25;45.85;;;-5.60;99.90;;;;;;5128044;27;20440;-88
2024/01/10 06:39:28;;;;;;;68.07;48.60;;;-5.60;99.90;;;;;;5110433;27;20758;-88
2024/01/10 06:41:54;;;;;;;62.63;46.23;;;-5.60;99.90;;;;;;5111211;27;20904;-89
2024/01/10 06:44:20;;;;;;;65.25;46.60;;;-5.60;99.90;;;;;;5110617;27;20435;-88
2024/01/10 06:46:45;;;;;;;66.63;47.63;;;-5.60;99.90;;;;;;5136021;27;20987;-88
2024/01/10 06:49:11;;;;;;;75.30;49.97;;;-5.50;99.90;;;;;;5130695;27;20485;-88
2024/01/10 06:51:37;;;;;;;71.23;49.80;;;-5.60;99.90;;;;;;5131288;27;20505;-88
2024/01/10 06:54:03;;;;;;;71.43;48.58;;;-5.50;99.90;;;;;;5130738;27;20421;-89
2024/01/10 06:56:33;;;;;;;63.65;46.80;;;-5.60;99.90;;;;;;5148494;27;20397;-89
2024/01/10 06:59:00;;;;;;;76.78;52.85;;;-5.60;99.90;;;;;;5131860;27;20401;-88
2024/01/10 07:01:26;;;;;;;73.32;50.25;;;-5.60;99.90;;;;;;5119039;27;20403;-88
2024/01/10 07:03:55;;;;;;;64.65;47.25;;;-5.60;99.90;;;;;;5111031;27;20781;-88
2024/01/10 07:06:21;;;;;;;71.82;49.17;;;-5.50;99.90;;;;;;5143605;27;20406;-88
2024/01/10 07:08:49;;;;;;;68.28;48.30;;;-5.60;99.90;;;;;;5110534;27;20791;-89
2024/01/10 07:11:15;;;;;;;70.30;49.22;;;-5.60;99.90;;;;;;5109807;27;20411;-88
2024/01/10 07:13:41;;;;;;;75.40;50.42;;;-5.60;99.90;;;;;;5109923;27;20430;-88
2024/01/10 07:16:08;;;;;;;73.80;51.27;;;-5.60;99.90;;;;;;5110441;27;20860;-87
2024/01/10 07:18:33;;;;;;;76.47;53.22;;;-5.60;99.90;;;;;;5109758;28;20438;-88
2024/01/10 07:20:59;;;;;;;75.30;52.05;;;-5.60;99.90;;;;;;5143886;27;20500;-89
2024/01/10 07:23:26;;;;;;;74.45;51.78;;;-5.60;99.90;;;;;;5143769;27;20815;-89
2024/01/10 07:25:52;;;;;;;77.80;53.85;;;-5.60;99.90;;;;;;5110526;27;20442;-90
2024/01/10 07:28:18;;;;;;;74.80;51.80;;;-5.60;99.90;;;;;;5110304;27;20410;-88
2024/01/10 07:30:44;;;;;;;76.57;52.33;;;-5.60;99.90;;;;;;5127618;27;20478;-89
2024/01/10 07:33:10;;;;;;;75.22;52.13;;;-5.60;99.90;;;;;;5143667;27;20717;-89
2024/01/10 07:35:38;;;;;;;67.50;49.30;;;-5.60;99.90;;;;;;5109400;27;20809;-88
2024/01/10 07:38:04;;;;;;;75.60;53.47;;;-5.60;99.90;;;;;;5127820;27;20898;-88
2024/01/10 07:40:29;;;;;;;71.97;51.58;;;-5.50;99.90;;;;;;5109570;28;20407;-89
2024/01/10 07:42:55;;;;;;;71.77;50.17;;;-5.50;99.90;;;;;;5110119;28;20816;-88
2024/01/10 07:45:22;;;;;;;72.18;50.22;;;-5.50;99.90;;;;;;5126957;27;20402;-89
2024/01/10 07:47:47;;;;;;;73.38;50.35;;;-5.50;99.90;;;;;;5109955;28;20407;-89
2024/01/10 07:50:14;;;;;;;71.57;50.40;;;-5.50;99.90;;;;;;5109787;27;20468;-89
2024/01/10 07:52:40;;;;;;;70.90;49.42;;;-5.50;99.90;;;;;;5126969;27;20399;-88
2024/01/10 07:55:06;;;;;;;66.32;47.28;;;-5.50;99.90;;;;;;5110196;28;20436;-90
2024/01/10 07:57:33;;;;;;;68.55;47.85;;;-5.50;99.90;;;;;;5109424;28;20477;-88
2024/01/10 07:59:59;;;;;;;66.32;47.58;;;-5.50;99.90;;;;;;5125218;27;20393;-89
2024/01/10 08:02:25;;;;;;;65.27;47.00;;;-5.50;99.90;;;;;;5130165;27;20420;-91
2024/01/10 08:04:52;;;;;;;62.43;45.83;;;-5.40;99.90;;;;;;5131101;27;20873;-89
2024/01/10 08:07:17;;;;;;;65.95;47.88;;;-5.40;99.90;;;;;;5130534;27;20397;-88
2024/01/10 08:09:43;;;;;;;60.73;43.83;;;-5.40;99.90;;;;;;5147635;27;20957;-87
2024/01/10 08:12:09;;;;;;;61.57;44.60;;;-5.30;99.90;;;;;;5147837;27;20435;-89
2024/01/10 08:14:34;;;;;;;62.40;44.50;;;-5.40;99.90;;;;;;5146606;27;20447;-89
2024/01/10 08:17:00;;;;;;;56.55;41.85;;;-5.30;99.90;;;;;;5131194;27;20957;-89
2024/01/10 08:19:26;;;;;;;53.97;40.45;;;-5.30;99.90;;;;;;5130164;27;20449;-88
2024/01/10 08:21:56;;;;;;;57.97;42.95;;;-5.30;99.90;;;;;;5129946;27;20455;-88
2024/01/10 08:24:22;;;;;;;55.70;40.70;;;-5.20;99.90;;;;;;5130291;27;20846;-89
2024/01/10 08:26:54;;;;;;;53.50;39.77;;;-5.10;99.90;;;;;;5101867;28;20542;-89
2024/01/10 08:29:21;;;;;;;51.13;38.83;;;-5.10;99.90;;;;;;5109374;28;20459;-89
2024/01/10 08:31:47;;;;;;;50.80;38.37;;;-5.00;99.90;;;;;;5125730;27;20421;-89
2024/01/10 08:34:13;;;;;;;50.53;39.47;;;-5.00;99.90;;;;;;5109531;27;21016;-90
2024/01/10 08:36:39;;;;;;;51.72;39.42;;;-4.90;99.90;;;;;;5109094;27;20493;-89
2024/01/10 08:39:05;;;;;;;49.92;37.42;;;-4.90;99.90;;;;;;5109638;28;20811;-90
2024/01/10 08:41:32;;;;;;;50.47;38.17;;;-4.50;99.90;;;;;;5118649;27;20480;-89
2024/01/10 08:43:58;;;;;;;50.75;36.70;;;-4.40;99.90;;;;;;5130044;27;20492;-90
2024/01/10 08:46:26;;;;;;;51.30;37.75;;;-4.50;99.90;;;;;;5132414;27;20954;-88
2024/01/10 08:48:52;;;;;;;50.30;36.57;;;-4.60;99.90;;;;;;5121593;27;20411;-88
2024/01/10 08:51:18;;;;;;;49.77;37.10;;;-4.60;99.90;;;;;;5127432;27;20412;-89
2024/01/10 08:53:44;;;;;;;47.28;35.33;;;-4.50;99.90;;;;;;5136509;27;20423;-89
2024/01/10 08:56:10;;;;;;;47.17;35.47;;;-4.40;99.90;;;;;;5130397;27;20588;-89
2024/01/10 08:58:36;;;;;;;45.58;34.47;;;-4.30;99.90;;;;;;5113589;27;20873;-88
2024/01/10 09:01:04;;;;;;;47.25;35.90;;;-4.20;99.90;;;;;;5133787;27;20509;-89
2024/01/10 09:03:30;;;;;;;47.75;35.30;;;-4.20;99.90;;;;;;5133218;27;20396;-90
2024/01/10 09:05:56;;;;;;;45.50;32.90;;;-4.00;99.90;;;;;;5133248;27;20397;-88
2024/01/10 09:08:22;;;;;;;42.38;32.58;;;-4.00;99.90;;;;;;5134182;27;20785;-88
2024/01/10 09:10:49;;;;;;;44.15;31.98;;;-3.90;99.90;;;;;;5133227;27;20438;-89
2024/01/10 09:13:15;;;;;;;40.67;31.17;;;-3.90;99.90;;;;;;5132272;27;20401;-88
2024/01/10 09:15:40;;;;;;;43.80;31.38;;;-3.80;99.90;;;;;;5114019;27;20838;-88
2024/01/10 09:18:06;;;;;;;45.78;32.00;;;-3.70;99.90;;;;;;5124209;27;20407;-89
2024/01/10 09:20:32;;;;;;;43.53;31.37;;;-3.70;99.90;;;;;;5124937;27;20413;-89
2024/01/10 09:22:59;;;;;;;43.70;31.90;;;-3.50;99.90;;;;;;5113814;27;20438;-89
2024/01/10 09:25:25;;;;;;;41.80;30.02;;;-3.50;99.90;;;;;;5132317;27;20405;-88
2024/01/10 09:27:51;;;;;;;43.37;30.57;;;-3.50;99.90;;;;;;5130407;27;20440;-88
2024/01/10 09:30:18;;;;;;;43.27;30.23;;;-3.40;99.90;;;;;;5142390;27;20397;-88
2024/01/10 09:32:44;;;;;;;45.13;30.02;;;-3.30;99.90;;;;;;5140055;27;20399;-89
2024/01/10 09:35:10;;;;;;;45.58;31.17;;;-3.20;99.90;;;;;;5114873;27;20421;-89
2024/01/10 09:37:35;;;;;;;43.80;28.93;;;-3.10;99.90;;;;;;5148611;27;20740;-88
2024/01/10 09:40:01;;;;;;;42.83;28.53;;;-3.00;99.90;;;;;;5129853;27;20474;-89
2024/01/10 09:42:27;;;;;;;48.05;28.85;;;-3.00;99.90;;;;;;5124834;27;20917;-88
2024/01/10 09:44:53;;;;;;;43.40;27.27;;;-2.80;99.90;;;;;;5121946;27;20391;-89
2024/01/10 09:47:20;;;;;;;37.13;24.55;;;-2.70;99.90;;;;;;5132858;27;20466;-88
2024/01/10 09:49:46;;;;;;;36.17;23.35;;;-2.30;99.90;;;;;;5131044;27;20453;-88
2024/01/10 09:52:23;;;;;;;33.37;22.10;;;-1.80;99.90;;;;;;5111911;27;20399;-89
2024/01/10 09:54:57;;;;;;;32.03;20.20;;;-1.30;99.90;;;;;;5127212;27;20421;-88
2024/01/10 09:57:23;;;;;;;27.88;19.23;;;-0.90;99.90;;;;;;5118263;27;20403;-90
2024/01/10 09:59:56;;;;;;;27.40;18.63;;;-0.50;99.90;;;;;;5118858;27;20397;-89
2024/01/10 10:02:23;;;;;;;26.67;18.02;;;-0.30;99.90;;;;;;5127134;27;20399;-90
2024/01/10 10:05:03;;;;;;;26.15;17.55;;;-0.20;99.90;;;;;;5110812;27;20401;-88
2024/01/10 10:07:29;;;;;;;25.15;17.00;;;0.00;99.90;;;;;;5090058;28;20400;-89
2024/01/10 10:09:58;;;;;;;25.92;17.05;;;0.20;99.90;;;;;;5124477;27;20453;-90
2024/01/10 10:12:42;;;;;;;25.00;16.77;;;0.50;99.90;;;;;;5119332;27;20413;-89
2024/01/10 10:15:13;;;;;;;24.45;17.02;;;0.70;99.90;;;;;;5110260;27;20422;-91
2024/01/10 10:17:45;;;;;;;23.33;16.30;;;0.80;99.90;;;;;;5116022;27;20426;-89
2024/01/10 10:20:14;;;;;;;23.67;15.57;;;0.80;99.90;;;;;;5128939;27;20506;-89
2024/01/10 10:22:42;;;;;;;22.80;15.95;;;0.70;99.90;;;;;;5110289;27;20399;-90
2024/01/10 10:25:08;;;;;;;22.30;14.60;;;0.60;99.90;;;;;;5109637;27;20417;-88
2024/01/10 10:27:36;;;;;;;24.70;16.25;;;0.40;99.90;;;;;;5140730;27;20393;-86
2024/01/10 10:30:03;;;;;;;21.73;14.57;;;0.30;99.90;;;;;;5122556;27;20395;-89
2024/01/10 10:32:30;;;;;;;22.88;15.38;;;0.30;99.90;;;;;;5113393;27;20492;-89
2024/01/10 10:34:56;;;;;;;21.98;14.23;;;0.40;99.90;;;;;;5131316;27;20995;-89
2024/01/10 10:37:22;;;;;;;20.25;13.50;;;0.30;99.90;;;;;;5110872;27;20387;-88
2024/01/10 10:39:47;;;;;;;22.77;14.07;;;0.30;99.90;;;;;;5127448;27;20516;-88
2024/01/10 10:42:15;;;;;;;20.30;13.77;;;0.20;99.90;;;;;;5136556;27;20903;-91
2024/01/10 10:44:42;;;;;;;20.98;13.10;;;0.10;99.90;;;;;;5125989;27;20406;-90
2024/01/10 10:47:10;;;;;;;20.45;12.95;;;0.10;99.90;;;;;;5109658;27;20397;-88
2024/01/10 10:49:48;;;;;;;20.02;13.30;;;0.20;99.90;;;;;;5130773;27;20489;-88
2024/01/10 10:52:15;;;;;;;18.15;12.52;;;0.20;99.90;;;;;;5112983;27;20458;-88
2024/01/10 10:54:41;;;;;;;20.23;12.93;;;0.50;99.90;;;;;;5121943;27;20413;-88
2024/01/10 10:57:07;;;;;;;20.60;13.00;;;0.70;97.10;;;;;;5122136;27;20422;-88
2024/01/10 10:59:35;;;;;;;18.92;12.48;;;0.90;98.50;;;;;;5111997;27;20401;-89
2024/01/10 11:02:01;;;;;;;19.13;12.60;;;1.10;98.50;;;;;;5130463;27;20428;-91
2024/01/10 11:04:28;;;;;;;19.60;12.87;;;1.30;96.60;;;;;;5130001;27;20538;-89
2024/01/10 11:06:54;;;;;;;19.15;12.85;;;1.50;92.00;;;;;;5115720;27;20753;-89
2024/01/10 11:09:23;;;;;;;19.83;13.00;;;1.70;95.70;;;;;;5118316;27;20477;-89
2024/01/10 11:12:18;;;;;;;19.00;12.57;;;1.90;90.20;;;;;;5146779;27;20437;-90
2024/01/10 11:14:55;;;;;;;17.88;12.48;;;1.90;89.10;;;;;;5126154;27;20418;-89
2024/01/10 11:17:39;;;;;;;18.17;12.53;;;1.90;90.10;;;;;;5127105;27;20817;-90
2024/01/10 11:20:29;;;;;;;17.33;11.52;;;2.00;84.70;;;;;;5146731;27;20412;-90
2024/01/10 11:23:16;;;;;;;17.77;11.68;;;2.00;84.60;;;;;;5089025;28;20756;-90
2024/01/10 11:25:42;;;;;;;18.70;12.57;;;2.30;85.00;;;;;;5108568;27;20486;-90
2024/01/10 11:28:08;;;;;;;17.52;12.27;;;2.80;83.10;;;;;;5109252;27;20531;-90
2024/01/10 11:30:37;;;;;;;16.67;11.50;;;3.10;73.50;;;;;;5119377;27;20393;-90
2024/01/10 11:33:20;;;;;;;16.35;11.85;;;3.30;71.70;;;;;;5123028;27;20390;-90
2024/01/10 11:36:24;;;;;;;16.02;11.13;;;3.30;67.90;;;;;;5111446;27;20405;-90
2024/01/10 11:38:53;;;;;;;16.65;11.45;;;3.10;66.20;;;;;;5125226;27;20455;-90
2024/01/10 11:41:30;;;;;;;17.08;11.80;;;2.90;68.20;;;;;;5108883;28;20414;-89
2024/01/10 11:44:11;;;;;;;17.30;11.98;;;2.70;69.70;;;;;;5089305;28;20392;-90
2024/01/10 11:46:47;;;;;;;18.80;12.20;;;2.30;66.40;;;;;;5123491;28;20912;-91
2024/01/10 11:49:20;;;;;;;17.75;12.23;;;2.10;76.50;;;;;;5109494;28;20394;-89
2024/01/10 11:51:47;;;;;;;17.13;11.75;;;1.70;79.20;;;;;;5119486;27;20397;-89
2024/01/10 11:54:37;;;;;;;17.48;11.45;;;1.50;76.50;;;;;;5123552;27;20453;-90
2024/01/10 11:57:07;;;;;;;17.00;12.20;;;1.50;84.70;;;;;;5113844;27;20736;-91
2024/01/10 11:59:34;;;;;;;17.23;11.77;;;1.50;81.40;;;;;;5129237;27;20445;-88
2024/01/10 12:02:00;;;;;;;17.63;11.73;;;1.40;84.90;;;;;;5108842;28;20395;-89
2024/01/10 12:04:29;;;;;;;15.97;10.90;;;1.30;81.00;;;;;;5108722;27;20491;-88
2024/01/10 12:06:55;;;;;;;15.40;10.23;;;1.30;86.70;;;;;;5093165;28;20467;-90
2024/01/10 12:09:21;;;;;;;16.40;11.07;;;1.60;80.60;;;;;;5112166;28;20406;-89
2024/01/10 12:11:48;;;;;;;15.87;10.97;;;2.00;84.90;;;;;;5128187;27;21122;-91
2024/01/10 12:14:15;;;;;;;16.25;11.38;;;2.60;82.80;;;;;;5131159;27;20421;-90
2024/01/10 12:16:40;;;;;;;14.10;10.20;;;3.10;71.00;;;;;;5130223;27;20907;-88
2024/01/10 12:19:06;;;;;;;15.00;10.43;;;3.60;65.80;;;;;;5131029;27;20618;-91
2024/01/10 12:21:32;;;;;;;13.98;9.93;;;4.20;65.50;;;;;;5133568;27;20416;-89
2024/01/10 12:23:57;;;;;;;14.50;10.33;;;4.90;59.00;;;;;;5134530;27;20396;-90
2024/01/10 12:26:23;;;;;;;15.00;10.77;;;5.00;60.90;;;;;;5134074;27;20393;-91